sensor_id;sensor_type;location;lat;lon;timestamp;temperature;humidity
27413;DHT22;14871;52.702;5.230;2023-04-03T00:01:26;9.20;91.50
27413;DHT22;14871;52.702;5.230;2023-04-03T00:03:52;9.20;91.00
27413;DHT22;14871;52.702;5.230;2023-04-03T00:06:18;9.10;91.20
27413;DHT22;14871;52.702;5.230;2023-04-03T00:08:44;9.20;91.00
27413;DHT22;14871;52.702;5.230;2023-04-03T00:11:10;9.20;91.20
27413;DHT22;14871;52.702;5.230;2023-04-03T00:13:37;9.00;91.90
27413;DHT22;14871;52.702;5.230;2023-04-03T00:16:02;9.10;91.50
27413;DHT22;14871;52.702;5.230;2023-04-03T00:18:29;9.00;91.50
27413;DHT22;14871;52.702;5.230;2023-04-03T00:20:55;9.00;91.60
27413;DHT22;14871;52.702;5.230;2023-04-03T00:23:20;9.00;91.70
27413;DHT22;14871;52.702;5.230;2023-04-03T00:25:49;8.90;92.00
27413;DHT22;14871;52.702;5.230;2023-04-03T00:28:15;9.00;91.80
27413;DHT22;14871;52.702;5.230;2023-04-03T00:30:41;8.90;92.00
27413;DHT22;14871;52.702;5.230;2023-04-03T00:33:07;8.80;92.20
27413;DHT22;14871;52.702;5.230;2023-04-03T00:35:34;8.80;92.40
27413;DHT22;14871;52.702;5.230;2023-04-03T00:38:00;8.80;92.40
27413;DHT22;14871;52.702;5.230;2023-04-03T00:40:27;8.90;92.40
27413;DHT22;14871;52.702;5.230;2023-04-03T00:42:58;8.90;92.40
27413;DHT22;14871;52.702;5.230;2023-04-03T00:45:35;8.90;92.40
27413;DHT22;14871;52.702;5.230;2023-04-03T00:48:04;9.00;92.30
27413;DHT22;14871;52.702;5.230;2023-04-03T00:50:33;8.90;92.50
27413;DHT22;14871;52.702;5.230;2023-04-03T00:53:01;8.80;92.60
27413;DHT22;14871;52.702;5.230;2023-04-03T00:55:27;8.80;92.70
27413;DHT22;14871;52.702;5.230;2023-04-03T00:57:54;8.70;93.00
27413;DHT22;14871;52.702;5.230;2023-04-03T01:00:22;8.70;92.90
27413;DHT22;14871;52.702;5.230;2023-04-03T01:02:49;8.70;93.00
27413;DHT22;14871;52.702;5.230;2023-04-03T01:05:16;8.70;93.10
27413;DHT22;14871;52.702;5.230;2023-04-03T01:07:42;8.50;93.20
27413;DHT22;14871;52.702;5.230;2023-04-03T01:10:11;8.50;93.30
27413;DHT22;14871;52.702;5.230;2023-04-03T01:12:40;8.60;93.30
27413;DHT22;14871;52.702;5.230;2023-04-03T01:15:10;8.60;93.30
27413;DHT22;14871;52.702;5.230;2023-04-03T01:17:46;8.50;93.40
27413;DHT22;14871;52.702;5.230;2023-04-03T01:23:03;8.50;93.50
27413;DHT22;14871;52.702;5.230;2023-04-03T01:25:32;8.50;93.60
27413;DHT22;14871;52.702;5.230;2023-04-03T01:27:58;8.50;93.50
27413;DHT22;14871;52.702;5.230;2023-04-03T01:30:30;8.40;93.80
27413;DHT22;14871;52.702;5.230;2023-04-03T01:32:56;8.50;93.80
27413;DHT22;14871;52.702;5.230;2023-04-03T01:35:23;8.50;93.80
27413;DHT22;14871;52.702;5.230;2023-04-03T01:37:48;8.40;93.90
27413;DHT22;14871;52.702;5.230;2023-04-03T01:40:14;8.50;93.90
27413;DHT22;14871;52.702;5.230;2023-04-03T01:42:41;8.30;93.80
27413;DHT22;14871;52.702;5.230;2023-04-03T01:45:06;8.30;94.10
27413;DHT22;14871;52.702;5.230;2023-04-03T01:47:32;8.30;94.10
27413;DHT22;14871;52.702;5.230;2023-04-03T01:49:58;8.20;94.20
27413;DHT22;14871;52.702;5.230;2023-04-03T01:52:23;8.30;94.00
27413;DHT22;14871;52.702;5.230;2023-04-03T01:54:49;8.20;94.30
27413;DHT22;14871;52.702;5.230;2023-04-03T01:57:16;8.20;94.40
27413;DHT22;14871;52.702;5.230;2023-04-03T01:59:42;8.10;94.50
27413;DHT22;14871;52.702;5.230;2023-04-03T02:02:08;8.20;94.40
27413;DHT22;14871;52.702;5.230;2023-04-03T02:04:34;8.10;94.40
27413;DHT22;14871;52.702;5.230;2023-04-03T02:07:00;8.10;94.50
27413;DHT22;14871;52.702;5.230;2023-04-03T02:09:25;8.10;94.50
27413;DHT22;14871;52.702;5.230;2023-04-03T02:11:52;8.00;94.70
27413;DHT22;14871;52.702;5.230;2023-04-03T02:14:18;8.00;94.60
27413;DHT22;14871;52.702;5.230;2023-04-03T02:16:44;8.00;94.60
27413;DHT22;14871;52.702;5.230;2023-04-03T02:19:09;8.00;94.80
27413;DHT22;14871;52.702;5.230;2023-04-03T02:21:35;8.00;94.80
27413;DHT22;14871;52.702;5.230;2023-04-03T02:24:01;8.00;94.80
27413;DHT22;14871;52.702;5.230;2023-04-03T02:26:27;8.00;94.80
27413;DHT22;14871;52.702;5.230;2023-04-03T02:28:52;7.90;95.00
27413;DHT22;14871;52.702;5.230;2023-04-03T02:31:18;7.90;94.90
27413;DHT22;14871;52.702;5.230;2023-04-03T02:33:44;7.90;95.20
27413;DHT22;14871;52.702;5.230;2023-04-03T02:36:09;7.90;95.20
27413;DHT22;14871;52.702;5.230;2023-04-03T02:38:35;7.90;95.30
27413;DHT22;14871;52.702;5.230;2023-04-03T02:41:09;7.80;95.50
27413;DHT22;14871;52.702;5.230;2023-04-03T02:43:36;7.80;95.50
27413;DHT22;14871;52.702;5.230;2023-04-03T02:46:02;7.70;95.90
27413;DHT22;14871;52.702;5.230;2023-04-03T02:48:28;7.70;95.80
27413;DHT22;14871;52.702;5.230;2023-04-03T02:50:54;7.60;96.10
27413;DHT22;14871;52.702;5.230;2023-04-03T02:53:20;7.70;95.90
27413;DHT22;14871;52.702;5.230;2023-04-03T02:55:46;7.70;96.10
27413;DHT22;14871;52.702;5.230;2023-04-03T02:58:12;7.70;96.10
27413;DHT22;14871;52.702;5.230;2023-04-03T03:00:38;7.70;96.20
27413;DHT22;14871;52.702;5.230;2023-04-03T03:03:04;7.70;96.30
27413;DHT22;14871;52.702;5.230;2023-04-03T03:05:30;7.70;96.40
27413;DHT22;14871;52.702;5.230;2023-04-03T03:07:56;7.60;96.50
27413;DHT22;14871;52.702;5.230;2023-04-03T03:10:22;7.60;96.50
27413;DHT22;14871;52.702;5.230;2023-04-03T03:12:48;7.60;96.60
27413;DHT22;14871;52.702;5.230;2023-04-03T03:15:14;7.40;97.10
27413;DHT22;14871;52.702;5.230;2023-04-03T03:17:40;7.50;97.10
27413;DHT22;14871;52.702;5.230;2023-04-03T03:20:07;7.40;97.20
27413;DHT22;14871;52.702;5.230;2023-04-03T03:22:33;7.50;97.10
27413;DHT22;14871;52.702;5.230;2023-04-03T03:24:59;7.40;97.10
27413;DHT22;14871;52.702;5.230;2023-04-03T03:27:26;7.20;97.60
27413;DHT22;14871;52.702;5.230;2023-04-03T03:29:52;7.40;97.30
27413;DHT22;14871;52.702;5.230;2023-04-03T03:32:18;7.30;97.60
27413;DHT22;14871;52.702;5.230;2023-04-03T03:34:43;7.10;97.80
27413;DHT22;14871;52.702;5.230;2023-04-03T03:37:09;7.20;97.80
27413;DHT22;14871;52.702;5.230;2023-04-03T03:39:34;7.10;98.00
27413;DHT22;14871;52.702;5.230;2023-04-03T03:42:00;7.20;97.90
27413;DHT22;14871;52.702;5.230;2023-04-03T03:44:26;7.00;98.20
27413;DHT22;14871;52.702;5.230;2023-04-03T03:46:54;7.10;98.20
27413;DHT22;14871;52.702;5.230;2023-04-03T03:49:20;7.10;98.20
27413;DHT22;14871;52.702;5.230;2023-04-03T03:51:45;7.10;98.30
27413;DHT22;14871;52.702;5.230;2023-04-03T03:54:12;7.10;98.20
27413;DHT22;14871;52.702;5.230;2023-04-03T03:56:38;7.10;98.40
27413;DHT22;14871;52.702;5.230;2023-04-03T03:59:04;7.10;98.40
27413;DHT22;14871;52.702;5.230;2023-04-03T04:01:29;7.00;99.20
27413;DHT22;14871;52.702;5.230;2023-04-03T04:03:55;7.10;98.50
27413;DHT22;14871;52.702;5.230;2023-04-03T04:06:21;7.00;98.70
27413;DHT22;14871;52.702;5.230;2023-04-03T04:08:47;7.00;98.70
27413;DHT22;14871;52.702;5.230;2023-04-03T04:11:12;6.80;99.40
27413;DHT22;14871;52.702;5.230;2023-04-03T04:13:38;6.80;99.50
27413;DHT22;14871;52.702;5.230;2023-04-03T04:16:04;6.80;99.50
27413;DHT22;14871;52.702;5.230;2023-04-03T04:18:30;6.60;99.90
27413;DHT22;14871;52.702;5.230;2023-04-03T04:20:56;6.70;99.90
27413;DHT22;14871;52.702;5.230;2023-04-03T04:23:21;6.60;99.90
27413;DHT22;14871;52.702;5.230;2023-04-03T04:25:48;6.80;99.90
27413;DHT22;14871;52.702;5.230;2023-04-03T04:28:15;6.80;99.90
27413;DHT22;14871;52.702;5.230;2023-04-03T04:30:40;6.90;99.90
27413;DHT22;14871;52.702;5.230;2023-04-03T04:33:06;6.80;99.90
27413;DHT22;14871;52.702;5.230;2023-04-03T04:35:33;6.60;99.90
27413;DHT22;14871;52.702;5.230;2023-04-03T04:37:58;6.60;99.90
27413;DHT22;14871;52.702;5.230;2023-04-03T04:40:25;6.60;99.90
27413;DHT22;14871;52.702;5.230;2023-04-03T04:42:51;6.60;99.90
27413;DHT22;14871;52.702;5.230;2023-04-03T04:45:17;6.70;99.90
27413;DHT22;14871;52.702;5.230;2023-04-03T04:47:43;6.60;99.90
27413;DHT22;14871;52.702;5.230;2023-04-03T04:50:11;6.70;99.90
27413;DHT22;14871;52.702;5.230;2023-04-03T04:52:37;6.60;99.90
27413;DHT22;14871;52.702;5.230;2023-04-03T04:55:03;6.70;99.90
27413;DHT22;14871;52.702;5.230;2023-04-03T04:57:29;6.60;99.90
27413;DHT22;14871;52.702;5.230;2023-04-03T04:59:55;6.50;99.90
27413;DHT22;14871;52.702;5.230;2023-04-03T05:02:20;6.50;99.90
27413;DHT22;14871;52.702;5.230;2023-04-03T05:04:46;6.60;99.90
27413;DHT22;14871;52.702;5.230;2023-04-03T05:07:12;6.60;99.90
27413;DHT22;14871;52.702;5.230;2023-04-03T05:09:37;6.50;99.90
27413;DHT22;14871;52.702;5.230;2023-04-03T05:12:03;6.60;99.90
27413;DHT22;14871;52.702;5.230;2023-04-03T05:14:29;6.60;99.90
27413;DHT22;14871;52.702;5.230;2023-04-03T05:16:55;6.60;99.90
27413;DHT22;14871;52.702;5.230;2023-04-03T05:19:21;6.60;99.90
27413;DHT22;14871;52.702;5.230;2023-04-03T05:21:47;6.70;99.90
27413;DHT22;14871;52.702;5.230;2023-04-03T05:24:14;6.70;99.90
27413;DHT22;14871;52.702;5.230;2023-04-03T05:26:41;6.70;99.90
27413;DHT22;14871;52.702;5.230;2023-04-03T05:29:07;6.70;99.90
27413;DHT22;14871;52.702;5.230;2023-04-03T05:31:33;6.80;99.90
27413;DHT22;14871;52.702;5.230;2023-04-03T05:33:58;6.70;99.90
27413;DHT22;14871;52.702;5.230;2023-04-03T05:36:24;6.80;99.90
27413;DHT22;14871;52.702;5.230;2023-04-03T05:38:51;6.80;99.90
27413;DHT22;14871;52.702;5.230;2023-04-03T05:41:18;6.80;99.90
27413;DHT22;14871;52.702;5.230;2023-04-03T05:43:44;6.80;99.90
27413;DHT22;14871;52.702;5.230;2023-04-03T05:46:15;6.90;99.90
27413;DHT22;14871;52.702;5.230;2023-04-03T05:48:41;6.80;99.90
27413;DHT22;14871;52.702;5.230;2023-04-03T05:51:15;6.70;99.90
27413;DHT22;14871;52.702;5.230;2023-04-03T05:53:42;6.60;99.90
27413;DHT22;14871;52.702;5.230;2023-04-03T05:56:08;6.80;99.90
27413;DHT22;14871;52.702;5.230;2023-04-03T05:58:34;6.70;99.90
27413;DHT22;14871;52.702;5.230;2023-04-03T06:01:00;6.70;99.90
27413;DHT22;14871;52.702;5.230;2023-04-03T06:03:26;6.80;99.90
27413;DHT22;14871;52.702;5.230;2023-04-03T06:05:52;6.80;99.90
27413;DHT22;14871;52.702;5.230;2023-04-03T06:08:18;6.80;99.90
27413;DHT22;14871;52.702;5.230;2023-04-03T06:10:44;6.80;99.90
27413;DHT22;14871;52.702;5.230;2023-04-03T06:13:10;6.80;99.90
27413;DHT22;14871;52.702;5.230;2023-04-03T06:15:36;6.70;99.90
27413;DHT22;14871;52.702;5.230;2023-04-03T06:18:03;6.60;99.90
27413;DHT22;14871;52.702;5.230;2023-04-03T06:20:29;6.60;99.90
27413;DHT22;14871;52.702;5.230;2023-04-03T06:22:55;6.80;99.90
27413;DHT22;14871;52.702;5.230;2023-04-03T06:25:20;6.70;99.90
27413;DHT22;14871;52.702;5.230;2023-04-03T06:27:46;6.70;99.90
27413;DHT22;14871;52.702;5.230;2023-04-03T06:30:12;6.80;99.90
27413;DHT22;14871;52.702;5.230;2023-04-03T06:32:38;6.70;99.90
27413;DHT22;14871;52.702;5.230;2023-04-03T06:35:04;6.80;99.90
27413;DHT22;14871;52.702;5.230;2023-04-03T06:37:31;6.80;99.90
27413;DHT22;14871;52.702;5.230;2023-04-03T06:39:58;6.70;99.90
27413;DHT22;14871;52.702;5.230;2023-04-03T06:42:23;6.70;99.90
27413;DHT22;14871;52.702;5.230;2023-04-03T06:44:49;6.70;99.90
27413;DHT22;14871;52.702;5.230;2023-04-03T06:47:16;6.80;99.90
27413;DHT22;14871;52.702;5.230;2023-04-03T06:49:43;7.00;99.90
27413;DHT22;14871;52.702;5.230;2023-04-03T06:52:09;6.80;99.90
27413;DHT22;14871;52.702;5.230;2023-04-03T06:54:35;7.00;99.90
27413;DHT22;14871;52.702;5.230;2023-04-03T06:57:01;6.80;99.90
27413;DHT22;14871;52.702;5.230;2023-04-03T06:59:27;7.00;99.90
27413;DHT22;14871;52.702;5.230;2023-04-03T07:01:53;7.20;99.90
27413;DHT22;14871;52.702;5.230;2023-04-03T07:04:18;7.30;99.90
27413;DHT22;14871;52.702;5.230;2023-04-03T07:06:46;7.30;99.90
27413;DHT22;14871;52.702;5.230;2023-04-03T07:09:12;7.30;99.90
27413;DHT22;14871;52.702;5.230;2023-04-03T07:11:38;7.60;99.90
27413;DHT22;14871;52.702;5.230;2023-04-03T07:14:04;7.50;99.90
27413;DHT22;14871;52.702;5.230;2023-04-03T07:16:30;7.80;99.90
27413;DHT22;14871;52.702;5.230;2023-04-03T07:18:57;8.00;99.90
27413;DHT22;14871;52.702;5.230;2023-04-03T07:21:23;8.20;99.90
27413;DHT22;14871;52.702;5.230;2023-04-03T07:23:49;8.30;99.90
27413;DHT22;14871;52.702;5.230;2023-04-03T07:26:15;8.50;99.40
27413;DHT22;14871;52.702;5.230;2023-04-03T07:28:41;8.50;98.90
27413;DHT22;14871;52.702;5.230;2023-04-03T07:31:11;8.60;98.70
27413;DHT22;14871;52.702;5.230;2023-04-03T07:33:39;8.30;99.00
27413;DHT22;14871;52.702;5.230;2023-04-03T07:36:06;8.50;99.30
27413;DHT22;14871;52.702;5.230;2023-04-03T07:38:33;8.50;98.40
27413;DHT22;14871;52.702;5.230;2023-04-03T07:40:59;8.80;98.40
27413;DHT22;14871;52.702;5.230;2023-04-03T07:43:25;9.00;97.80
27413;DHT22;14871;52.702;5.230;2023-04-03T07:45:52;9.00;97.50
27413;DHT22;14871;52.702;5.230;2023-04-03T07:48:21;9.30;97.50
27413;DHT22;14871;52.702;5.230;2023-04-03T07:50:47;9.10;97.20
27413;DHT22;14871;52.702;5.230;2023-04-03T07:53:12;9.40;97.50
27413;DHT22;14871;52.702;5.230;2023-04-03T07:55:39;9.70;97.10
27413;DHT22;14871;52.702;5.230;2023-04-03T07:58:10;9.90;96.60
27413;DHT22;14871;52.702;5.230;2023-04-03T08:00:36;9.90;96.10
27413;DHT22;14871;52.702;5.230;2023-04-03T08:03:02;9.80;95.40
27413;DHT22;14871;52.702;5.230;2023-04-03T08:05:28;10.00;95.70
27413;DHT22;14871;52.702;5.230;2023-04-03T08:07:53;10.00;95.60
27413;DHT22;14871;52.702;5.230;2023-04-03T08:10:19;10.30;95.80
27413;DHT22;14871;52.702;5.230;2023-04-03T08:12:48;10.50;95.60
27413;DHT22;14871;52.702;5.230;2023-04-03T08:15:14;10.80;95.20
27413;DHT22;14871;52.702;5.230;2023-04-03T08:17:40;10.60;93.80
27413;DHT22;14871;52.702;5.230;2023-04-03T08:20:06;10.60;93.70
27413;DHT22;14871;52.702;5.230;2023-04-03T08:22:33;10.60;93.40
27413;DHT22;14871;52.702;5.230;2023-04-03T08:24:59;10.50;93.50
27413;DHT22;14871;52.702;5.230;2023-04-03T08:27:26;10.90;94.20
27413;DHT22;14871;52.702;5.230;2023-04-03T08:29:52;11.10;92.90
27413;DHT22;14871;52.702;5.230;2023-04-03T08:32:18;11.30;92.30
27413;DHT22;14871;52.702;5.230;2023-04-03T08:34:44;11.20;92.30
27413;DHT22;14871;52.702;5.230;2023-04-03T08:37:10;11.30;92.20
27413;DHT22;14871;52.702;5.230;2023-04-03T08:39:36;11.60;92.20
27413;DHT22;14871;52.702;5.230;2023-04-03T08:42:10;11.80;91.60
27413;DHT22;14871;52.702;5.230;2023-04-03T08:44:59;11.80;90.40
27413;DHT22;14871;52.702;5.230;2023-04-03T08:47:38;11.70;89.40
27413;DHT22;14871;52.702;5.230;2023-04-03T08:50:08;11.50;89.60
27413;DHT22;14871;52.702;5.230;2023-04-03T08:52:43;11.80;90.50
27413;DHT22;14871;52.702;5.230;2023-04-03T08:57:46;12.00;86.40
27413;DHT22;14871;52.702;5.230;2023-04-03T09:02:48;11.80;86.30
27413;DHT22;14871;52.702;5.230;2023-04-03T09:05:17;11.80;86.10
27413;DHT22;14871;52.702;5.230;2023-04-03T09:07:47;12.10;85.70
27413;DHT22;14871;52.702;5.230;2023-04-03T09:10:18;12.40;85.40
27413;DHT22;14871;52.702;5.230;2023-04-03T09:12:53;12.70;84.50
27413;DHT22;14871;52.702;5.230;2023-04-03T09:15:22;12.90;85.70
27413;DHT22;14871;52.702;5.230;2023-04-03T09:21:04;13.10;81.50
27413;DHT22;14871;52.702;5.230;2023-04-03T09:23:51;13.10;80.50
27413;DHT22;14871;52.702;5.230;2023-04-03T09:29:05;13.50;81.40
27413;DHT22;14871;52.702;5.230;2023-04-03T09:31:42;13.80;78.70
27413;DHT22;14871;52.702;5.230;2023-04-03T09:34:24;14.00;79.00
27413;DHT22;14871;52.702;5.230;2023-04-03T09:36:57;14.20;78.70
27413;DHT22;14871;52.702;5.230;2023-04-03T09:39:26;14.30;78.10
27413;DHT22;14871;52.702;5.230;2023-04-03T09:42:05;14.50;78.00
27413;DHT22;14871;52.702;5.230;2023-04-03T09:44:35;14.30;74.30
27413;DHT22;14871;52.702;5.230;2023-04-03T09:47:36;14.50;75.50
27413;DHT22;14871;52.702;5.230;2023-04-03T09:52:41;14.20;71.00
27413;DHT22;14871;52.702;5.230;2023-04-03T09:55:26;14.40;72.00
27413;DHT22;14871;52.702;5.230;2023-04-03T09:57:58;14.40;72.60
27413;DHT22;14871;52.702;5.230;2023-04-03T10:00:34;14.40;71.20
27413;DHT22;14871;52.702;5.230;2023-04-03T10:03:01;14.70;71.90
27413;DHT22;14871;52.702;5.230;2023-04-03T10:11:05;15.20;67.60
27413;DHT22;14871;52.702;5.230;2023-04-03T10:13:26;15.10;67.80
27413;DHT22;14871;52.702;5.230;2023-04-03T10:18:49;15.20;65.20
27413;DHT22;14871;52.702;5.230;2023-04-03T10:21:43;15.00;62.60
27413;DHT22;14871;52.702;5.230;2023-04-03T10:27:17;15.70;66.50
27413;DHT22;14871;52.702;5.230;2023-04-03T10:35:34;16.50;60.10
27413;DHT22;14871;52.702;5.230;2023-04-03T10:41:07;16.30;57.70
27413;DHT22;14871;52.702;5.230;2023-04-03T10:43:58;16.50;57.00
27413;DHT22;14871;52.702;5.230;2023-04-03T10:46:49;16.30;54.00
27413;DHT22;14871;52.702;5.230;2023-04-03T10:49:35;16.20;55.60
27413;DHT22;14871;52.702;5.230;2023-04-03T10:52:24;16.10;55.40
27413;DHT22;14871;52.702;5.230;2023-04-03T10:57:40;16.50;54.80
27413;DHT22;14871;52.702;5.230;2023-04-03T11:00:17;16.30;54.70
27413;DHT22;14871;52.702;5.230;2023-04-03T11:02:55;16.10;54.10
27413;DHT22;14871;52.702;5.230;2023-04-03T11:08:03;16.10;54.30
27413;DHT22;14871;52.702;5.230;2023-04-03T11:10:49;16.50;55.80
27413;DHT22;14871;52.702;5.230;2023-04-03T11:13:24;16.30;52.60
27413;DHT22;14871;52.702;5.230;2023-04-03T11:15:53;16.70;54.20
27413;DHT22;14871;52.702;5.230;2023-04-03T11:18:44;16.70;54.00
27413;DHT22;14871;52.702;5.230;2023-04-03T11:21:29;16.80;55.60
27413;DHT22;14871;52.702;5.230;2023-04-03T11:23:57;17.00;53.30
27413;DHT22;14871;52.702;5.230;2023-04-03T11:26:29;17.10;53.40
27413;DHT22;14871;52.702;5.230;2023-04-03T11:29:01;16.70;53.30
27413;DHT22;14871;52.702;5.230;2023-04-03T11:32:05;16.80;53.90
27413;DHT22;14871;52.702;5.230;2023-04-03T11:34:49;16.50;51.40
27413;DHT22;14871;52.702;5.230;2023-04-03T11:37:21;16.50;51.60
27413;DHT22;14871;52.702;5.230;2023-04-03T11:39:58;16.20;52.90
27413;DHT22;14871;52.702;5.230;2023-04-03T11:42:33;16.70;54.10
27413;DHT22;14871;52.702;5.230;2023-04-03T11:45:36;17.10;52.50
27413;DHT22;14871;52.702;5.230;2023-04-03T11:50:55;17.50;48.60
27413;DHT22;14871;52.702;5.230;2023-04-03T11:53:34;17.50;49.60
27413;DHT22;14871;52.702;5.230;2023-04-03T11:59:14;17.50;51.40
27413;DHT22;14871;52.702;5.230;2023-04-03T12:04:13;17.60;48.60
27413;DHT22;14871;52.702;5.230;2023-04-03T12:11:58;17.80;48.50
27413;DHT22;14871;52.702;5.230;2023-04-03T12:14:25;17.70;49.20
27413;DHT22;14871;52.702;5.230;2023-04-03T12:16:53;17.80;49.20
27413;DHT22;14871;52.702;5.230;2023-04-03T12:19:38;17.70;48.20
27413;DHT22;14871;52.702;5.230;2023-04-03T12:22:09;18.00;49.30
27413;DHT22;14871;52.702;5.230;2023-04-03T12:24:37;18.00;48.80
27413;DHT22;14871;52.702;5.230;2023-04-03T12:29:46;18.70;50.60
27413;DHT22;14871;52.702;5.230;2023-04-03T12:40:42;19.00;49.00
27413;DHT22;14871;52.702;5.230;2023-04-03T12:46:12;19.10;45.20
27413;DHT22;14871;52.702;5.230;2023-04-03T12:48:58;18.20;45.90
27413;DHT22;14871;52.702;5.230;2023-04-03T12:51:42;18.50;48.40
27413;DHT22;14871;52.702;5.230;2023-04-03T12:59:40;18.60;48.80
27413;DHT22;14871;52.702;5.230;2023-04-03T13:02:21;18.70;46.80
27413;DHT22;14871;52.702;5.230;2023-04-03T13:04:49;18.10;46.40
27413;DHT22;14871;52.702;5.230;2023-04-03T13:07:31;18.20;48.40
27413;DHT22;14871;52.702;5.230;2023-04-03T13:10:15;18.40;46.60
27413;DHT22;14871;52.702;5.230;2023-04-03T13:12:57;17.90;47.50
27413;DHT22;14871;52.702;5.230;2023-04-03T13:15:28;17.90;47.90
27413;DHT22;14871;52.702;5.230;2023-04-03T13:17:55;18.30;48.90
27413;DHT22;14871;52.702;5.230;2023-04-03T13:20:30;18.20;48.10
27413;DHT22;14871;52.702;5.230;2023-04-03T13:23:04;18.20;48.00
27413;DHT22;14871;52.702;5.230;2023-04-03T13:25:34;18.30;47.70
27413;DHT22;14871;52.702;5.230;2023-04-03T13:28:04;18.80;49.80
27413;DHT22;14871;52.702;5.230;2023-04-03T13:30:36;19.10;47.90
27413;DHT22;14871;52.702;5.230;2023-04-03T13:33:05;18.80;46.30
27413;DHT22;14871;52.702;5.230;2023-04-03T13:38:02;19.00;48.00
27413;DHT22;14871;52.702;5.230;2023-04-03T13:40:28;19.00;47.40
27413;DHT22;14871;52.702;5.230;2023-04-03T13:43:18;19.00;47.50
27413;DHT22;14871;52.702;5.230;2023-04-03T13:48:52;19.20;47.20
27413;DHT22;14871;52.702;5.230;2023-04-03T13:51:22;19.20;44.30
27413;DHT22;14871;52.702;5.230;2023-04-03T13:54:10;18.70;46.20
27413;DHT22;14871;52.702;5.230;2023-04-03T13:56:39;19.00;46.80
27413;DHT22;14871;52.702;5.230;2023-04-03T14:04:31;18.30;47.40
27413;DHT22;14871;52.702;5.230;2023-04-03T14:06:57;18.60;46.70
27413;DHT22;14871;52.702;5.230;2023-04-03T14:09:25;18.70;47.50
27413;DHT22;14871;52.702;5.230;2023-04-03T14:11:56;18.80;45.90
27413;DHT22;14871;52.702;5.230;2023-04-03T14:14:26;18.60;45.00
27413;DHT22;14871;52.702;5.230;2023-04-03T14:16:55;18.70;45.90
27413;DHT22;14871;52.702;5.230;2023-04-03T14:19:31;18.50;44.80
27413;DHT22;14871;52.702;5.230;2023-04-03T14:21:58;18.60;46.40
27413;DHT22;14871;52.702;5.230;2023-04-03T14:24:24;18.40;46.70
27413;DHT22;14871;52.702;5.230;2023-04-03T14:26:53;18.60;46.20
27413;DHT22;14871;52.702;5.230;2023-04-03T14:29:20;18.40;45.70
27413;DHT22;14871;52.702;5.230;2023-04-03T14:31:48;18.10;45.50
27413;DHT22;14871;52.702;5.230;2023-04-03T14:34:15;17.60;45.90
27413;DHT22;14871;52.702;5.230;2023-04-03T14:36:43;17.70;46.40
27413;DHT22;14871;52.702;5.230;2023-04-03T14:39:15;18.00;48.70
27413;DHT22;14871;52.702;5.230;2023-04-03T14:41:42;18.40;49.20
27413;DHT22;14871;52.702;5.230;2023-04-03T14:44:08;18.40;47.20
27413;DHT22;14871;52.702;5.230;2023-04-03T14:46:39;18.00;46.30
27413;DHT22;14871;52.702;5.230;2023-04-03T14:49:15;18.10;47.00
27413;DHT22;14871;52.702;5.230;2023-04-03T14:51:41;17.80;45.80
27413;DHT22;14871;52.702;5.230;2023-04-03T14:54:14;18.00;47.00
27413;DHT22;14871;52.702;5.230;2023-04-03T14:56:40;17.50;47.10
27413;DHT22;14871;52.702;5.230;2023-04-03T14:59:11;18.00;48.60
27413;DHT22;14871;52.702;5.230;2023-04-03T15:01:37;18.30;48.60
27413;DHT22;14871;52.702;5.230;2023-04-03T15:04:13;18.60;47.80
27413;DHT22;14871;52.702;5.230;2023-04-03T15:06:39;18.80;47.60
27413;DHT22;14871;52.702;5.230;2023-04-03T15:09:17;18.70;47.10
27413;DHT22;14871;52.702;5.230;2023-04-03T15:11:43;18.30;46.80
27413;DHT22;14871;52.702;5.230;2023-04-03T15:14:09;18.50;47.40
27413;DHT22;14871;52.702;5.230;2023-04-03T15:16:35;18.70;47.50
27413;DHT22;14871;52.702;5.230;2023-04-03T15:19:01;18.60;46.40
27413;DHT22;14871;52.702;5.230;2023-04-03T15:21:27;18.40;46.50
27413;DHT22;14871;52.702;5.230;2023-04-03T15:23:52;18.40;46.40
27413;DHT22;14871;52.702;5.230;2023-04-03T15:26:18;18.50;47.30
27413;DHT22;14871;52.702;5.230;2023-04-03T15:28:44;18.60;47.40
27413;DHT22;14871;52.702;5.230;2023-04-03T15:31:10;18.70;47.10
27413;DHT22;14871;52.702;5.230;2023-04-03T15:33:36;18.40;46.50
27413;DHT22;14871;52.702;5.230;2023-04-03T15:36:02;18.40;47.10
27413;DHT22;14871;52.702;5.230;2023-04-03T15:38:28;18.50;47.30
27413;DHT22;14871;52.702;5.230;2023-04-03T15:40:55;18.70;47.60
27413;DHT22;14871;52.702;5.230;2023-04-03T15:43:21;18.70;47.70
27413;DHT22;14871;52.702;5.230;2023-04-03T15:45:47;18.40;47.80
27413;DHT22;14871;52.702;5.230;2023-04-03T15:48:13;18.20;47.50
27413;DHT22;14871;52.702;5.230;2023-04-03T15:50:39;18.10;48.10
27413;DHT22;14871;52.702;5.230;2023-04-03T15:53:05;18.20;48.80
27413;DHT22;14871;52.702;5.230;2023-04-03T15:55:33;18.20;49.10
27413;DHT22;14871;52.702;5.230;2023-04-03T15:58:00;18.40;49.40
27413;DHT22;14871;52.702;5.230;2023-04-03T16:00:27;18.40;49.40
27413;DHT22;14871;52.702;5.230;2023-04-03T16:02:58;18.50;49.00
27413;DHT22;14871;52.702;5.230;2023-04-03T16:05:25;18.40;47.70
27413;DHT22;14871;52.702;5.230;2023-04-03T16:07:51;18.40;47.30
27413;DHT22;14871;52.702;5.230;2023-04-03T16:10:18;18.30;48.40
27413;DHT22;14871;52.702;5.230;2023-04-03T16:12:44;18.40;49.60
27413;DHT22;14871;52.702;5.230;2023-04-03T16:15:12;18.30;48.40
27413;DHT22;14871;52.702;5.230;2023-04-03T16:17:38;18.20;48.30
27413;DHT22;14871;52.702;5.230;2023-04-03T16:20:07;18.00;48.60
27413;DHT22;14871;52.702;5.230;2023-04-03T16:22:33;17.90;48.80
27413;DHT22;14871;52.702;5.230;2023-04-03T16:24:59;18.00;49.70
27413;DHT22;14871;52.702;5.230;2023-04-03T16:27:25;18.00;49.80
27413;DHT22;14871;52.702;5.230;2023-04-03T16:29:56;17.80;50.00
27413;DHT22;14871;52.702;5.230;2023-04-03T16:32:23;17.70;50.80
27413;DHT22;14871;52.702;5.230;2023-04-03T16:34:49;17.60;51.10
27413;DHT22;14871;52.702;5.230;2023-04-03T16:37:16;17.60;51.00
27413;DHT22;14871;52.702;5.230;2023-04-03T16:39:42;17.70;51.20
27413;DHT22;14871;52.702;5.230;2023-04-03T16:42:07;17.60;49.20
27413;DHT22;14871;52.702;5.230;2023-04-03T16:44:34;17.40;48.30
27413;DHT22;14871;52.702;5.230;2023-04-03T16:47:00;17.20;49.50
27413;DHT22;14871;52.702;5.230;2023-04-03T16:49:26;17.20;49.70
27413;DHT22;14871;52.702;5.230;2023-04-03T16:51:55;17.20;49.40
27413;DHT22;14871;52.702;5.230;2023-04-03T16:54:21;17.20;49.90
27413;DHT22;14871;52.702;5.230;2023-04-03T16:56:46;17.10;50.30
27413;DHT22;14871;52.702;5.230;2023-04-03T16:59:12;17.10;51.30
27413;DHT22;14871;52.702;5.230;2023-04-03T17:01:37;16.90;50.60
27413;DHT22;14871;52.702;5.230;2023-04-03T17:04:03;16.90;50.50
27413;DHT22;14871;52.702;5.230;2023-04-03T17:06:29;16.80;51.60
27413;DHT22;14871;52.702;5.230;2023-04-03T17:08:55;16.80;50.40
27413;DHT22;14871;52.702;5.230;2023-04-03T17:11:20;16.60;49.80
27413;DHT22;14871;52.702;5.230;2023-04-03T17:13:46;16.50;50.20